createdAt,value
2019-03-13T00:01:35.138Z,2.42
2019-03-13T00:04:01.641Z,2.17
2019-03-13T00:06:28.183Z,2.27
2019-03-13T00:08:54.469Z,2.30
2019-03-13T00:11:20.780Z,2.47
2019-03-13T00:13:47.166Z,2.05
2019-03-13T00:16:33.431Z,1.80
2019-03-13T00:18:59.828Z,2.45
2019-03-13T00:21:26.162Z,2.02
2019-03-13T00:23:52.549Z,2.10
2019-03-13T00:26:18.981Z,1.90
2019-03-13T00:28:45.284Z,2.20
2019-03-13T00:31:11.552Z,1.85
2019-03-13T00:33:37.926Z,2.45
2019-03-13T00:36:04.322Z,1.82
2019-03-13T00:38:30.751Z,2.05
2019-03-13T00:40:57.080Z,2.30
2019-03-13T00:43:23.515Z,2.30
2019-03-13T00:45:49.975Z,2.22
2019-03-13T00:48:16.295Z,2.27
2019-03-13T00:50:42.651Z,3.08
2019-03-13T00:53:08.977Z,1.90
2019-03-13T00:55:35.272Z,2.33
2019-03-13T00:58:02.919Z,2.12
2019-03-13T01:00:31.122Z,1.98
2019-03-13T01:02:57.459Z,2.20
2019-03-13T01:05:25.666Z,2.42
2019-03-13T01:07:52.077Z,2.00
2019-03-13T01:10:18.685Z,2.25
2019-03-13T01:12:45.123Z,2.20
2019-03-13T01:15:11.498Z,2.20
2019-03-13T01:17:48.540Z,1.98
2019-03-13T01:20:14.980Z,2.30
2019-03-13T01:22:41.509Z,2.15
2019-03-13T01:25:08.747Z,1.98
2019-03-13T01:27:35.149Z,2.30
2019-03-13T01:30:01.728Z,2.05
2019-03-13T01:32:49.607Z,2.20
2019-03-13T01:35:17.940Z,2.30
2019-03-13T01:37:44.231Z,2.40
2019-03-13T01:40:10.856Z,2.10
2019-03-13T01:42:37.176Z,2.30
2019-03-13T01:45:06.266Z,2.17
2019-03-13T01:47:32.573Z,2.10
2019-03-13T01:49:58.890Z,2.17
2019-03-13T01:52:26.294Z,2.12
2019-03-13T01:54:52.609Z,2.00
2019-03-13T01:57:18.916Z,2.00
2019-03-13T01:59:46.505Z,2.20
2019-03-13T02:02:12.932Z,2.02
2019-03-13T02:04:39.236Z,2.17
2019-03-13T02:07:05.564Z,1.85
2019-03-13T02:09:31.861Z,1.80
2019-03-13T02:11:58.430Z,2.27
2019-03-13T02:14:24.732Z,1.90
2019-03-13T02:16:51.048Z,2.10
2019-03-13T02:19:37.251Z,1.70
2019-03-13T02:22:04.687Z,1.95
2019-03-13T02:24:32.123Z,2.10
2019-03-13T02:26:58.418Z,2.00
2019-03-13T02:29:24.737Z,2.17
2019-03-13T02:31:51.146Z,1.90
2019-03-13T02:34:17.572Z,1.95
2019-03-13T02:36:43.913Z,2.25
2019-03-13T02:39:10.207Z,2.02
2019-03-13T02:41:36.932Z,2.37
2019-03-13T02:44:03.463Z,1.82
2019-03-13T02:46:29.879Z,2.22
2019-03-13T02:48:56.211Z,1.75
2019-03-13T02:51:22.629Z,2.00
2019-03-13T02:53:49.026Z,2.22
2019-03-13T02:56:15.371Z,2.02
2019-03-13T02:58:41.859Z,2.17
2019-03-13T03:01:30.167Z,1.80
2019-03-13T03:03:58.588Z,1.82
2019-03-13T03:06:25.042Z,2.30
2019-03-13T03:08:51.464Z,2.00
2019-03-13T03:11:17.757Z,2.30
2019-03-13T03:13:44.282Z,2.10
2019-03-13T03:16:10.596Z,1.90
2019-03-13T03:18:36.922Z,2.27
2019-03-13T03:21:03.247Z,2.30
2019-03-13T03:23:29.700Z,2.00
2019-03-13T03:25:56.152Z,2.50
2019-03-13T03:28:42.318Z,2.40
2019-03-13T03:31:08.782Z,2.60
2019-03-13T03:33:35.273Z,2.30
2019-03-13T03:36:14.958Z,2.60
2019-03-13T03:38:41.476Z,2.35
2019-03-13T03:41:07.824Z,2.22
2019-03-13T03:43:40.691Z,2.62
2019-03-13T03:46:02.438Z,2.50
2019-03-13T03:48:39.661Z,2.52
2019-03-13T03:51:05.990Z,2.40
2019-03-13T03:53:32.447Z,2.77
2019-03-13T03:56:00.732Z,2.87
2019-03-13T03:58:29.525Z,2.55
2019-03-13T04:01:08.522Z,2.58
2019-03-13T04:03:35.058Z,2.50
2019-03-13T04:06:02.688Z,2.52
2019-03-13T04:08:39.984Z,2.75
2019-03-13T04:11:17.227Z,2.30
2019-03-13T04:13:45.183Z,2.58
2019-03-13T04:16:11.679Z,2.37
2019-03-13T04:18:37.989Z,2.95
2019-03-13T04:21:04.299Z,2.40
2019-03-13T04:23:30.605Z,2.22
2019-03-13T04:25:57.015Z,2.15
2019-03-13T04:28:23.343Z,2.52
2019-03-13T04:30:49.844Z,2.67
2019-03-13T04:33:17.485Z,3.92
2019-03-13T04:35:43.795Z,4.10
2019-03-13T04:38:10.217Z,3.80
2019-03-13T04:40:36.502Z,2.80
2019-03-13T04:43:02.933Z,3.12
2019-03-13T04:45:29.323Z,3.10
2019-03-13T04:47:55.729Z,2.90
2019-03-13T04:50:42.148Z,2.90
2019-03-13T04:53:08.681Z,3.20
2019-03-13T04:55:35.024Z,2.65
2019-03-13T04:58:01.304Z,2.90
2019-03-13T05:00:27.636Z,2.87
2019-03-13T05:02:53.909Z,3.35
2019-03-13T05:05:35.896Z,2.95
2019-03-13T05:08:02.358Z,3.10
2019-03-13T05:10:28.724Z,2.90
2019-03-13T05:12:55.078Z,3.12
2019-03-13T05:15:32.358Z,2.77
2019-03-13T05:17:58.732Z,2.83
2019-03-13T05:20:25.064Z,2.87
2019-03-13T05:22:52.555Z,3.00
2019-03-13T05:25:19.406Z,3.15
2019-03-13T05:27:56.707Z,2.55
2019-03-13T05:30:28.286Z,2.40
2019-03-13T05:32:56.912Z,2.67
2019-03-13T05:35:23.268Z,2.75
2019-03-13T05:38:02.873Z,2.52
2019-03-13T05:40:29.203Z,2.50
2019-03-13T05:42:55.618Z,3.20
2019-03-13T05:45:22.040Z,2.85
2019-03-13T05:48:08.378Z,3.25
2019-03-13T05:50:35.027Z,3.27
2019-03-13T05:53:01.388Z,3.15
2019-03-13T05:55:27.729Z,3.40
2019-03-13T05:58:14.015Z,3.40
2019-03-13T06:00:40.543Z,3.58
2019-03-13T06:03:06.957Z,3.60
2019-03-13T06:05:33.464Z,3.80
2019-03-13T06:07:59.782Z,3.80
2019-03-13T06:10:26.064Z,3.40
2019-03-13T06:12:52.519Z,3.85
2019-03-13T06:15:18.872Z,4.22
2019-03-13T06:17:46.207Z,4.42
2019-03-13T06:20:17.294Z,5.20
2019-03-13T06:22:43.807Z,4.20
2019-03-13T06:25:11.131Z,3.85
2019-03-13T06:27:37.692Z,3.90
2019-03-13T06:33:12.593Z,3.27
2019-03-13T06:35:39.016Z,3.58
2019-03-13T06:38:05.424Z,3.72
2019-03-13T06:40:31.727Z,2.95
2019-03-13T06:42:58.025Z,3.55
2019-03-13T06:45:24.347Z,4.10
2019-03-13T06:47:50.778Z,4.62
2019-03-13T06:50:18.785Z,3.98
2019-03-13T06:52:45.221Z,5.85
2019-03-13T06:55:11.530Z,5.78
2019-03-13T06:57:37.834Z,4.47
2019-03-13T07:00:12.597Z,4.25
2019-03-13T07:05:11.831Z,3.40
2019-03-13T07:07:43.191Z,3.83
2019-03-13T07:10:14.357Z,3.42
2019-03-13T07:12:52.767Z,3.85
2019-03-13T07:15:21.163Z,3.98
2019-03-13T07:17:56.250Z,3.60
2019-03-13T07:23:00.246Z,3.80
2019-03-13T07:25:32.004Z,4.03
2019-03-13T07:28:00.242Z,4.17
2019-03-13T07:30:28.513Z,4.80
2019-03-13T07:33:05.856Z,4.45
2019-03-13T07:35:36.834Z,4.17
2019-03-13T07:38:05.177Z,3.67
2019-03-13T07:40:36.201Z,4.30
2019-03-13T07:43:20.571Z,3.87
2019-03-13T07:46:05.604Z,4.10
2019-03-13T07:48:39.804Z,4.17
2019-03-13T07:51:08.010Z,3.83
2019-03-13T07:53:36.315Z,3.40
2019-03-13T07:56:16.433Z,3.35
2019-03-13T07:58:53.722Z,3.45
2019-03-13T08:01:27.763Z,3.30
2019-03-13T08:03:56.110Z,6.53
2019-03-13T08:06:24.384Z,4.35
2019-03-13T08:08:58.401Z,3.75
2019-03-13T08:11:32.614Z,3.77
2019-03-13T08:14:17.882Z,3.42
2019-03-13T08:16:46.151Z,3.83
2019-03-13T08:19:15.036Z,3.42
2019-03-13T08:21:59.761Z,4.70
2019-03-13T08:24:32.142Z,5.30
2019-03-13T08:27:03.464Z,5.80
2019-03-13T08:29:31.769Z,5.65
2019-03-13T08:32:16.747Z,5.33
2019-03-13T08:34:51.171Z,4.90
2019-03-13T08:37:25.378Z,5.03
2019-03-13T08:40:11.601Z,4.97
2019-03-13T08:42:58.311Z,5.25
2019-03-13T08:45:26.564Z,5.65
2019-03-13T08:48:13.170Z,7.20
2019-03-13T08:50:44.221Z,6.22
2019-03-13T08:53:29.013Z,6.45
2019-03-13T08:56:06.353Z,6.42
2019-03-13T08:58:37.321Z,6.65
2019-03-13T09:01:08.691Z,6.75
2019-03-13T09:03:39.947Z,7.72
2019-03-13T09:06:17.155Z,7.50
2019-03-13T09:08:54.311Z,7.03
2019-03-13T09:11:31.576Z,7.58
2019-03-13T09:14:02.608Z,8.53
2019-03-13T09:16:39.853Z,8.48
2019-03-13T09:19:24.702Z,9.80
2019-03-13T09:21:58.767Z,9.50
2019-03-13T09:24:43.998Z,9.10
2019-03-13T09:27:12.429Z,8.63
2019-03-13T09:29:49.992Z,8.70
2019-03-13T09:32:18.337Z,8.45
2019-03-13T09:35:04.657Z,7.92
2019-03-13T09:37:35.895Z,7.62
2019-03-13T09:40:09.598Z,7.10
2019-03-13T09:42:40.781Z,8.13
2019-03-13T09:45:16.577Z,8.23
2019-03-13T09:47:44.927Z,8.58
2019-03-13T09:50:18.903Z,8.45
2019-03-13T09:52:53.445Z,8.40
2019-03-13T09:55:21.784Z,8.80
2019-03-13T09:57:59.021Z,8.83
2019-03-13T10:00:46.193Z,8.90
2019-03-13T10:03:17.140Z,8.20
2019-03-13T10:05:58.412Z,8.58
2019-03-13T10:08:29.703Z,9.30
2019-03-13T10:11:07.129Z,8.38
2019-03-13T10:13:35.452Z,7.55
2019-03-13T10:16:06.812Z,7.12
2019-03-13T10:18:35.244Z,5.53
2019-03-13T10:21:09.586Z,4.95
2019-03-13T10:23:37.807Z,5.15
2019-03-13T10:26:06.016Z,4.58
2019-03-13T10:28:37.331Z,4.92
2019-03-13T10:31:18.887Z,4.15
2019-03-13T10:33:50.247Z,5.00
2019-03-13T10:36:27.412Z,4.10
2019-03-13T10:39:01.430Z,4.55
2019-03-13T10:41:43.750Z,4.50
2019-03-13T10:44:16.214Z,4.50
2019-03-13T10:46:44.489Z,3.67
2019-03-13T10:49:20.167Z,4.17
2019-03-13T10:51:53.078Z,4.15
2019-03-13T10:54:21.330Z,4.12
2019-03-13T10:56:49.641Z,3.87
2019-03-13T10:59:27.506Z,3.85
2019-03-13T11:02:13.759Z,4.25
2019-03-13T11:04:54.432Z,4.80
2019-03-13T11:07:28.558Z,4.00
2019-03-13T11:10:11.061Z,4.05
2019-03-13T11:12:51.677Z,4.10
2019-03-13T11:15:22.923Z,4.15
2019-03-13T11:17:54.038Z,4.12
2019-03-13T11:20:40.393Z,3.55
2019-03-13T11:23:12.178Z,4.33
2019-03-13T11:25:40.504Z,4.90
2019-03-13T11:28:14.818Z,4.80
2019-03-13T11:30:59.878Z,4.00
2019-03-13T11:33:31.349Z,4.05
2019-03-13T11:36:02.700Z,5.22
2019-03-13T11:38:37.029Z,5.00
2019-03-13T11:41:23.151Z,4.50
2019-03-13T11:44:02.010Z,5.00
2019-03-13T11:46:36.394Z,4.22
2019-03-13T11:49:10.749Z,4.85
2019-03-13T11:51:45.429Z,4.90
2019-03-13T11:54:16.638Z,4.97
2019-03-13T11:56:57.078Z,4.90
2019-03-13T11:59:40.788Z,5.35
2019-03-13T12:02:25.604Z,5.10
2019-03-13T12:04:53.813Z,5.35
2019-03-13T12:07:38.857Z,4.75
2019-03-13T12:10:16.830Z,5.75
2019-03-13T12:12:57.403Z,6.60
2019-03-13T12:15:37.859Z,6.60
2019-03-13T12:18:22.978Z,6.42
2019-03-13T12:20:54.033Z,6.87
2019-03-13T12:23:37.763Z,6.95
2019-03-13T12:26:08.733Z,6.22
2019-03-13T12:28:36.969Z,5.78
2019-03-13T12:31:13.852Z,6.12
2019-03-13T12:33:44.078Z,6.53
2019-03-13T12:36:12.320Z,6.80
2019-03-13T12:38:44.824Z,6.37
2019-03-13T12:41:19.044Z,5.92
2019-03-13T12:43:56.339Z,6.65
2019-03-13T12:46:27.621Z,6.37
2019-03-13T12:48:58.820Z,6.03
2019-03-13T12:51:29.733Z,6.03
2019-03-13T12:54:00.969Z,6.03
2019-03-13T12:56:30.278Z,5.30
2019-03-13T12:58:58.688Z,5.45
2019-03-13T13:01:40.428Z,6.17
2019-03-13T13:04:08.682Z,5.53
2019-03-13T13:06:42.936Z,4.95
2019-03-13T13:09:11.180Z,6.33
2019-03-13T13:11:47.334Z,5.47
2019-03-13T13:14:15.539Z,4.78
2019-03-13T13:19:22.022Z,6.70
2019-03-13T13:21:48.793Z,11.12
2019-03-13T13:24:15.406Z,8.38
2019-03-13T13:26:41.766Z,7.10
2019-03-13T13:29:08.129Z,6.30
2019-03-13T13:31:34.463Z,4.70
2019-03-13T13:34:00.789Z,4.50
2019-03-13T13:36:27.299Z,3.70
2019-03-13T13:38:53.643Z,3.80
2019-03-13T13:41:21.118Z,3.90
2019-03-13T13:43:47.451Z,4.00
2019-03-13T13:46:21.347Z,3.47
2019-03-13T13:48:47.673Z,3.67
2019-03-13T13:51:14.319Z,3.80
2019-03-13T13:53:40.711Z,4.00
2019-03-13T13:56:07.146Z,3.60
2019-03-13T13:58:33.505Z,4.20
2019-03-13T14:00:59.806Z,4.03
2019-03-13T14:03:26.110Z,4.10
2019-03-13T14:05:52.437Z,3.87
2019-03-13T14:08:18.755Z,3.90
2019-03-13T14:10:45.064Z,3.50
2019-03-13T14:13:11.400Z,3.90
2019-03-13T14:15:37.746Z,3.85
2019-03-13T14:18:04.047Z,3.60
2019-03-13T14:20:30.420Z,4.45
2019-03-13T14:22:56.726Z,4.33
2019-03-13T14:25:23.408Z,4.08
2019-03-13T14:27:49.725Z,3.22
2019-03-13T14:30:18.624Z,3.08
2019-03-13T14:32:44.912Z,3.37
2019-03-13T14:35:24.721Z,4.17
2019-03-13T14:37:51.149Z,3.95
2019-03-13T14:40:18.247Z,3.85
2019-03-13T14:42:45.126Z,3.85
2019-03-13T14:45:13.952Z,3.55
2019-03-13T14:47:40.402Z,3.90
2019-03-13T14:50:13.529Z,3.67
2019-03-13T14:52:40.036Z,3.83
2019-03-13T14:55:09.559Z,3.22
2019-03-13T14:57:36.074Z,3.60
2019-03-13T15:00:05.807Z,3.40
2019-03-13T15:02:33.384Z,4.00
2019-03-13T15:04:59.923Z,4.15
2019-03-13T15:07:26.209Z,4.15
2019-03-13T15:09:52.505Z,3.98
2019-03-13T15:12:18.954Z,4.05
2019-03-13T15:14:46.327Z,4.62
2019-03-13T15:17:12.650Z,4.72
2019-03-13T15:19:38.954Z,5.72
2019-03-13T15:22:05.263Z,4.00
2019-03-13T15:24:31.663Z,4.15
2019-03-13T15:26:58.966Z,4.03
2019-03-13T15:29:25.400Z,3.55
2019-03-13T15:31:51.703Z,3.27
2019-03-13T15:34:18.128Z,3.60
2019-03-13T15:36:44.652Z,3.47
2019-03-13T15:39:10.943Z,3.40
2019-03-13T15:41:38.858Z,3.95
2019-03-13T15:44:25.167Z,3.10
2019-03-13T15:46:51.689Z,4.45
2019-03-13T15:49:18.003Z,5.12
2019-03-13T15:51:44.331Z,3.50
2019-03-13T15:54:10.628Z,4.03
2019-03-13T15:56:36.916Z,4.00
2019-03-13T15:59:04.656Z,3.85
2019-03-13T16:01:32.371Z,3.52
2019-03-13T16:03:58.702Z,3.50
2019-03-13T16:06:25.005Z,3.30
2019-03-13T16:08:51.304Z,3.27
2019-03-13T16:11:28.776Z,3.35
2019-03-13T16:13:55.157Z,4.12
2019-03-13T16:16:21.497Z,3.70
2019-03-13T16:18:47.910Z,3.47
2019-03-13T16:21:14.222Z,3.50
2019-03-13T16:23:40.527Z,3.62
2019-03-13T16:26:06.827Z,4.20
2019-03-13T16:28:33.363Z,3.92
2019-03-13T16:31:00.087Z,4.00
2019-03-13T16:33:26.674Z,5.85
2019-03-13T16:35:53.095Z,7.28
2019-03-13T16:38:19.356Z,6.72
2019-03-13T16:40:45.785Z,5.37
2019-03-13T16:43:12.090Z,3.80
2019-03-13T16:45:38.873Z,3.80
2019-03-13T16:48:05.192Z,3.50
2019-03-13T16:50:33.190Z,3.80
2019-03-13T16:52:59.597Z,4.62
2019-03-13T16:55:26.193Z,4.75
2019-03-13T16:57:52.832Z,5.35
2019-03-13T17:00:29.255Z,5.70
2019-03-13T17:02:55.748Z,5.90
2019-03-13T17:05:22.241Z,5.05
2019-03-13T17:07:50.073Z,5.10
2019-03-13T17:10:22.388Z,5.60
2019-03-13T17:12:48.937Z,6.78
2019-03-13T17:15:20.225Z,7.15
2019-03-13T17:17:46.700Z,5.42
2019-03-13T17:20:15.545Z,5.50
2019-03-13T17:22:43.288Z,5.12
2019-03-13T17:25:14.209Z,5.62
2019-03-13T17:27:40.499Z,5.40
2019-03-13T17:30:11.006Z,7.10
2019-03-13T17:32:37.518Z,8.60
2019-03-13T17:35:04.251Z,6.50
2019-03-13T17:37:30.883Z,7.83
2019-03-13T17:39:57.168Z,7.87
2019-03-13T17:42:23.468Z,10.38
2019-03-13T17:44:49.782Z,11.75
2019-03-13T17:47:16.249Z,7.80
2019-03-13T17:50:03.512Z,7.85
2019-03-13T17:52:29.969Z,6.42
2019-03-13T17:55:19.855Z,5.22
2019-03-13T17:57:46.297Z,5.47
2019-03-13T18:00:27.555Z,5.10
2019-03-13T18:02:54.019Z,5.55
2019-03-13T18:05:21.750Z,6.25
2019-03-13T18:07:48.216Z,6.97
2019-03-13T18:10:17.686Z,5.60
2019-03-13T18:12:44.024Z,5.58
2019-03-13T18:15:11.427Z,5.25
2019-03-13T18:17:37.929Z,5.78
2019-03-13T18:20:17.501Z,6.12
2019-03-13T18:22:44.031Z,5.83
2019-03-13T18:25:12.462Z,6.10
2019-03-13T18:27:40.386Z,5.35
2019-03-13T18:30:10.402Z,6.15
2019-03-13T18:32:41.532Z,5.60
2019-03-13T18:35:07.438Z,6.30
2019-03-13T18:37:33.860Z,7.35
2019-03-13T18:40:00.409Z,5.83
2019-03-13T18:42:26.897Z,6.35
2019-03-13T18:44:53.796Z,6.85
2019-03-13T18:47:20.365Z,6.97
2019-03-13T18:49:46.929Z,7.53
2019-03-13T18:52:13.571Z,7.42
2019-03-13T18:54:40.211Z,7.05
2019-03-13T18:57:06.715Z,7.12
2019-03-13T18:59:33.573Z,7.55
2019-03-13T19:01:59.957Z,6.75
2019-03-13T19:04:26.303Z,8.23
2019-03-13T19:06:52.806Z,7.05
2019-03-13T19:09:19.712Z,9.38
2019-03-13T19:11:46.236Z,7.85
2019-03-13T19:14:12.659Z,7.95
2019-03-13T19:16:39.115Z,7.70
2019-03-13T19:19:05.855Z,7.70
2019-03-13T19:21:32.487Z,7.60
2019-03-13T19:23:58.975Z,7.15
2019-03-13T19:26:25.367Z,8.03
2019-03-13T19:28:52.187Z,7.65
2019-03-13T19:31:21.023Z,9.10
2019-03-13T19:33:48.020Z,8.83
2019-03-13T19:36:14.972Z,9.55
2019-03-13T19:38:41.981Z,9.25
2019-03-13T19:41:10.128Z,8.33
2019-03-13T19:43:37.113Z,8.68
2019-03-13T19:46:06.046Z,7.85
2019-03-13T19:48:33.206Z,9.40
2019-03-13T19:51:00.205Z,9.93
2019-03-13T19:53:27.071Z,9.40
2019-03-13T19:55:53.933Z,10.60
2019-03-13T19:58:23.331Z,11.43
2019-03-13T20:00:57.906Z,10.05
2019-03-13T20:03:29.313Z,14.05
2019-03-13T20:06:02.993Z,13.65
2019-03-13T20:08:32.183Z,11.97
2019-03-13T20:11:01.032Z,11.12
2019-03-13T20:13:28.532Z,9.90
2019-03-13T20:15:55.703Z,9.13
2019-03-13T20:18:24.313Z,8.85
2019-03-13T20:20:51.233Z,9.15
2019-03-13T20:23:18.166Z,8.98
2019-03-13T20:25:45.124Z,9.68
2019-03-13T20:28:12.559Z,9.43
2019-03-13T20:30:39.576Z,9.53
2019-03-13T20:33:06.782Z,9.35
2019-03-13T20:35:36.610Z,10.45
2019-03-13T20:38:02.502Z,9.35
2019-03-13T20:40:29.362Z,11.68
2019-03-13T20:42:56.485Z,11.08
2019-03-13T20:45:29.528Z,9.83
2019-03-13T20:47:56.460Z,9.98
2019-03-13T20:50:35.922Z,10.53
2019-03-13T20:52:52.344Z,10.75
2019-03-13T20:55:22.767Z,10.00
2019-03-13T20:57:49.715Z,10.38
2019-03-13T21:00:23.220Z,11.22
2019-03-13T21:02:51.415Z,10.32
2019-03-13T21:05:18.346Z,11.12
2019-03-13T21:07:45.388Z,10.18
2019-03-13T21:10:12.468Z,10.28
2019-03-13T21:12:39.560Z,11.80
2019-03-13T21:15:12.551Z,10.65
2019-03-13T21:17:59.269Z,10.88
2019-03-13T21:20:26.381Z,10.65
2019-03-13T21:22:53.435Z,10.98
2019-03-13T21:25:27.697Z,13.18
2019-03-13T21:27:54.659Z,14.63
2019-03-13T21:30:26.321Z,12.50
2019-03-13T21:32:53.956Z,13.32
2019-03-13T21:35:21.592Z,12.65
2019-03-13T21:37:48.747Z,13.15
2019-03-13T21:40:17.524Z,11.03
2019-03-13T21:42:44.114Z,10.15
2019-03-13T21:45:21.690Z,10.90
2019-03-13T21:47:40.404Z,10.30
2019-03-13T21:50:11.809Z,10.08
2019-03-13T21:52:38.291Z,11.15
2019-03-13T21:55:08.529Z,10.68
2019-03-13T21:57:34.969Z,10.58
2019-03-13T22:00:03.962Z,10.93
2019-03-13T22:02:33.990Z,9.85
2019-03-13T22:05:00.571Z,10.40
2019-03-13T22:07:26.990Z,10.98
2019-03-13T22:09:53.514Z,11.00
2019-03-13T22:12:19.926Z,12.00
2019-03-13T22:14:46.322Z,10.38
2019-03-13T22:17:13.844Z,11.00
2019-03-13T22:19:40.211Z,10.68
2019-03-13T22:22:06.595Z,12.15
2019-03-13T22:24:33.112Z,10.50
2019-03-13T22:26:59.499Z,11.88
2019-03-13T22:29:25.818Z,12.88
2019-03-13T22:31:52.233Z,13.90
2019-03-13T22:34:18.513Z,13.45
2019-03-13T22:36:45.653Z,12.85
2019-03-13T22:39:11.943Z,17.82
2019-03-13T22:41:51.538Z,17.02
2019-03-13T22:44:17.977Z,16.05
2019-03-13T22:46:44.417Z,16.27
2019-03-13T22:49:10.763Z,18.07
2019-03-13T22:51:37.297Z,17.70
2019-03-13T22:54:03.922Z,17.07
2019-03-13T22:56:30.268Z,15.03
2019-03-13T22:58:57.203Z,13.45
2019-03-13T23:01:23.938Z,12.40
2019-03-13T23:03:51.445Z,12.37
2019-03-13T23:06:17.885Z,11.97
2019-03-13T23:08:44.907Z,12.03
2019-03-13T23:11:11.553Z,13.05
2019-03-13T23:13:37.976Z,12.30
2019-03-13T23:16:06.386Z,12.30
2019-03-13T23:18:37.952Z,12.13
2019-03-13T23:21:09.219Z,11.08
2019-03-13T23:23:36.578Z,12.10
2019-03-13T23:26:07.662Z,10.60
2019-03-13T23:28:34.970Z,12.03
2019-03-13T23:31:01.454Z,12.23
2019-03-13T23:33:27.741Z,12.45
2019-03-13T23:35:54.052Z,11.50
2019-03-13T23:38:33.493Z,11.80
2019-03-13T23:40:59.898Z,12.33
2019-03-13T23:43:26.209Z,11.53
2019-03-13T23:46:05.619Z,11.93
2019-03-13T23:48:32.033Z,11.73
2019-03-13T23:50:59.519Z,11.97
2019-03-13T23:53:25.917Z,11.88
2019-03-13T23:56:12.059Z,11.65
2019-03-13T23:58:39.479Z,11.60
